Idlewood, Illinois
Current Conditions -  °F | °C
As of 11:55 AM on Friday 21 Nov 2014 (Local Time) from KMVN Reporting Station
Clear Clear  
Wind Chill: 32°   Ceiling: Unl
Heat Index: 37°   Visibility: 10mi
Dew Point: 18°   Wind: 7mph
Humidity: 45%   Direction: 100°E
Pressure: 30.43"   Gusts: NA
Location:  38.3147°N, 88.9065°W
Report Text: KMVN 211755Z AUTO 10006KT 10SM CLR 03/M08 A3043 RMK AO1 10030 21070 57017
Loading
Personal Weather Stations






























Interactive Weather Map New forecast layout! Learn more

10-Day Weather Forecast

Advertisements
Track Severe Weather on mobile